Gorham, Illinois
Current Conditions -  °F | °C
As of 12:52 PM on Friday 31 Oct 2014 (Local Time) from KMDH Reporting Station
Few Clouds Few Clouds  
Wind Chill: 37°   Ceiling: Unl
Heat Index: 46°   Visibility: 10mi
Dew Point: 23°   Wind: 26mph
Humidity: 40%   Direction: 340°NNW
Pressure: 30.21"   Gusts: 40mph
Location:  37.72°N, 89.49°W
Report Text: KMDH 311752Z 34023G35KT 10SM FEW050 08/M05 A3021 RMK AO2 PK WND 34035/1752 SLP231 60000 T00781050 10094 20072 51014
Loading
Personal Weather Stations






























Interactive Weather Map
Tropical Storm Tracking
New forecast layout! Learn more

10-Day Weather Forecast

Advertisements
Track Severe Weather on mobile